Time;durP1;ratioP1;P1;durP2;ratioP2;P2;SDS_P1;SDS_P2;PMS_P1;PMS_P2;Temp;Humidity;BMP_temperature;BMP_pressure;BME280_temperature;BME280_humidity;BME280_pressure;Samples;Min_cycle;Max_cycle;Signal;HPM_P1;HPM_P2
2022/08/19 00:02:19;;;;;;;;;;;;;;;;;;5061043;28;901;-72
2022/08/19 00:04:46;;;;;;;;;;;;;;;;;;5060525;28;1184;-72
2022/08/19 00:07:12;;;;;;;;;;;;;;;;;;5060901;28;908;-72
2022/08/19 00:09:37;;;;;;;;;;;;;;;;;;5061034;28;885;-72
2022/08/19 00:12:02;;;;;;;;;;;;;;;;;;5060893;28;977;-72
2022/08/19 00:14:31;;;;;;;;;;;;;;;;;;5060441;28;1199;-72
2022/08/19 00:16:56;;;;;;;;;;;;;;;;;;5060901;28;839;-72
2022/08/19 00:19:22;;;;;;;;;;;;;;;;;;5060890;28;1894;-72
2022/08/19 00:21:47;;;;;;;;;;;;;;;;;;5060720;28;799;-72
2022/08/19 00:24:14;;;;;;;;;;;;;;;;;;5060647;28;1191;-72
2022/08/19 00:26:40;;;;;;;;;;;;;;;;;;5060366;28;823;-72
2022/08/19 00:29:06;;;;;;;;;;;;;;;;;;5060754;28;901;-73
2022/08/19 00:31:32;;;;;;;;;;;;;;;;;;5060493;28;881;-72
2022/08/19 00:33:57;;;;;;;;;;;;;;;;;;5060642;28;787;-72
2022/08/19 00:36:22;;;;;;;;;;;;;;;;;;5060011;28;1196;-72
2022/08/19 00:38:49;;;;;;;;;;;;;;;;;;5062625;28;930;-72
2022/08/19 00:41:17;;;;;;;;;;;;;;;;;;5063946;28;881;-72
2022/08/19 00:43:42;;;;;;;;;;;;;;;;;;5064007;28;830;-72
2022/08/19 00:46:07;;;;;;;;;;;;;;;;;;5063443;28;1273;-72
2022/08/19 00:48:33;;;;;;;;;;;;;;;;;;5063942;28;918;-72
2022/08/19 00:50:59;;;;;;;;;;;;;;;;;;5063735;28;811;-72
2022/08/19 00:53:27;;;;;;;;;;;;;;;;;;5063752;28;977;-72
2022/08/19 00:55:53;;;;;;;;;;;;;;;;;;5063388;28;1285;-73
2022/08/19 00:58:20;;;;;;;;;;;;;;;;;;5063789;28;803;-73
2022/08/19 01:00:46;;;;;;;;;;;;;;;;;;5063680;28;1957;-73
2022/08/19 01:03:13;;;;;;;;;;;;;;;;;;5063559;28;957;-72
2022/08/19 01:05:40;;;;;;;;;;;;;;;;;;5063502;28;1191;-72
2022/08/19 01:08:06;;;;;;;;;;;;;;;;;;5063540;28;1246;-72
2022/08/19 01:10:36;;;;;;;;;;;;;;;;;;5063547;28;895;-72
2022/08/19 01:13:03;;;;;;;;;;;;;;;;;;5063401;28;949;-72
2022/08/19 01:15:38;;;;;;;;;;;;;;;;;;5063267;28;1184;-72
2022/08/19 01:18:07;;;;;;;;;;;;;;;;;;5063313;28;909;-72
2022/08/19 01:20:34;;;;;;;;;;;;;;;;;;5063543;28;1945;-72
2022/08/19 01:23:00;;;;;;;;;;;;;;;;;;5063291;28;830;-72
2022/08/19 01:25:34;;;;;;;;;;;;;;;;;;5062941;28;1168;-72
2022/08/19 01:27:59;;;;;;;;;;;;;;;;;;5063249;28;1001;-72
2022/08/19 01:30:27;;;;;;;;;;;;;;;;;;5063265;28;933;-72
2022/08/19 01:32:53;;;;;;;;;;;;;;;;;;5063113;28;957;-72
2022/08/19 01:35:19;;;;;;;;;;;;;;;;;;5062826;28;1184;-72
2022/08/19 01:37:49;;;;;;;;;;;;;;;;;;5063204;28;905;-72
2022/08/19 01:40:19;;;;;;;;;;;;;;;;;;5063779;28;1901;-73
2022/08/19 01:42:45;;;;;;;;;;;;;;;;;;5063238;28;826;-72
2022/08/19 01:45:10;;;;;;;;;;;;;;;;;;5062575;28;1266;-72
2022/08/19 01:47:36;;;;;;;;;;;;;;;;;;5063067;28;942;-72
2022/08/19 01:50:01;;;;;;;;;;;;;;;;;;5062438;28;858;-72
2022/08/19 01:52:27;;;;;;;;;;;;;;;;;;5062876;28;956;-72
2022/08/19 01:54:52;;;;;;;;;;;;;;;;;;5062570;28;1188;-72
2022/08/19 01:57:18;;;;;;;;;;;;;;;;;;5062887;28;984;-72
2022/08/19 01:59:44;;;;;;;;;;;;;;;;;;5062633;28;1901;-72
2022/08/19 02:02:10;;;;;;;;;;;;;;;;;;5062969;28;953;-72
2022/08/19 02:04:35;;;;;;;;;;;;;;;;;;5062502;28;1136;-72
2022/08/19 02:07:01;;;;;;;;;;;;;;;;;;5062803;28;826;-72
2022/08/19 02:09:26;;;;;;;;;;;;;;;;;;5062821;28;873;-72
2022/08/19 02:11:51;;;;;;;;;;;;;;;;;;5062580;28;1056;-72
2022/08/19 02:14:16;;;;;;;;;;;;;;;;;;5062665;28;1184;-72
2022/08/19 02:16:42;;;;;;;;;;;;;;;;;;5062240;28;925;-72
2022/08/19 02:19:07;;;;;;;;;;;;;;;;;;5062497;28;1965;-72
2022/08/19 02:21:33;;;;;;;;;;;;;;;;;;5062362;28;838;-72
2022/08/19 02:23:58;;;;;;;;;;;;;;;;;;5062468;28;854;-73
2022/08/19 02:26:23;;;;;;;;;;;;;;;;;;5062011;28;1255;-73
2022/08/19 02:28:49;;;;;;;;;;;;;;;;;;5062675;28;795;-73
2022/08/19 02:31:16;;;;;;;;;;;;;;;;;;5062474;28;880;-72
2022/08/19 02:33:42;;;;;;;;;;;;;;;;;;5062324;28;842;-72
2022/08/19 02:36:07;;;;;;;;;;;;;;;;;;5061756;28;1180;-72
2022/08/19 02:38:33;;;;;;;;;;;;;;;;;;5062245;28;1046;-73
2022/08/19 02:41:00;;;;;;;;;;;;;;;;;;5062104;28;1952;-73
2022/08/19 02:43:26;;;;;;;;;;;;;;;;;;5062136;28;787;-73
2022/08/19 02:45:52;;;;;;;;;;;;;;;;;;5061743;28;1192;-73
2022/08/19 02:48:18;;;;;;;;;;;;;;;;;;5061973;28;997;-73
2022/08/19 02:50:44;;;;;;;;;;;;;;;;;;5062183;28;807;-73
2022/08/19 02:53:09;;;;;;;;;;;;;;;;;;5061993;28;858;-72
2022/08/19 02:55:34;;;;;;;;;;;;;;;;;;5061596;28;1188;-73
2022/08/19 02:57:59;;;;;;;;;;;;;;;;;;5061746;28;946;-72
2022/08/19 03:00:25;;;;;;;;;;;;;;;;;;5060803;28;1894;-73
2022/08/19 03:02:51;;;;;;;;;;;;;;;;;;5061892;28;882;-73
2022/08/19 03:05:16;;;;;;;;;;;;;;;;;;5061649;28;1274;-73
2022/08/19 03:07:41;;;;;;;;;;;;;;;;;;5061639;28;985;-72
2022/08/19 03:10:06;;;;;;;;;;;;;;;;;;5061865;28;881;-73
2022/08/19 03:12:35;;;;;;;;;;;;;;;;;;5061642;28;857;-73
2022/08/19 03:15:00;;;;;;;;;;;;;;;;;;5061200;28;1274;-73
2022/08/19 03:17:25;;;;;;;;;;;;;;;;;;5061636;28;873;-73
2022/08/19 03:19:50;;;;;;;;;;;;;;;;;;5061379;28;1973;-72
2022/08/19 03:22:16;;;;;;;;;;;;;;;;;;5061545;28;989;-72
2022/08/19 03:24:41;;;;;;;;;;;;;;;;;;5061052;28;1208;-73
2022/08/19 03:27:06;;;;;;;;;;;;;;;;;;5061436;28;866;-73
2022/08/19 03:29:32;;;;;;;;;;;;;;;;;;5043522;28;1615;-73
2022/08/19 03:32:00;;;;;;;;;;;;;;;;;;5061458;28;822;-72
2022/08/19 03:34:26;;;;;;;;;;;;;;;;;;5060959;28;1185;-72
2022/08/19 03:36:52;;;;;;;;;;;;;;;;;;5061438;28;965;-72
2022/08/19 03:39:17;;;;;;;;;;;;;;;;;;5061176;28;1960;-72
2022/08/19 03:41:43;;;;;;;;;;;;;;;;;;5061274;28;819;-73
2022/08/19 03:44:09;;;;;;;;;;;;;;;;;;5061169;28;1056;-72
2022/08/19 03:46:35;;;;;;;;;;;;;;;;;;5060794;28;1176;-72
2022/08/19 03:49:08;;;;;;;;;;;;;;;;;;5061329;28;885;-72
2022/08/19 03:51:34;;;;;;;;;;;;;;;;;;5061040;28;846;-72
2022/08/19 03:54:00;;;;;;;;;;;;;;;;;;5061159;28;807;-72
2022/08/19 03:56:27;;;;;;;;;;;;;;;;;;5060178;28;1207;-73
2022/08/19 03:58:53;;;;;;;;;;;;;;;;;;5061300;28;822;-72
2022/08/19 04:01:19;;;;;;;;;;;;;;;;;;5060839;28;1929;-72
2022/08/19 04:03:46;;;;;;;;;;;;;;;;;;5060994;28;819;-73
2022/08/19 04:06:12;;;;;;;;;;;;;;;;;;5060489;28;1255;-72
2022/08/19 04:08:37;;;;;;;;;;;;;;;;;;5061012;28;802;-72
2022/08/19 04:11:06;;;;;;;;;;;;;;;;;;5060717;28;826;-72
2022/08/19 04:13:31;;;;;;;;;;;;;;;;;;5064217;28;823;-72
2022/08/19 04:15:56;;;;;;;;;;;;;;;;;;5064070;28;1188;-72
2022/08/19 04:18:22;;;;;;;;;;;;;;;;;;5064349;28;803;-72
2022/08/19 04:20:48;;;;;;;;;;;;;;;;;;5064306;28;1898;-72
2022/08/19 04:23:13;;;;;;;;;;;;;;;;;;5064242;28;870;-72
2022/08/19 04:25:40;;;;;;;;;;;;;;;;;;5064002;28;1254;-72
2022/08/19 04:28:05;;;;;;;;;;;;;;;;;;5064230;28;831;-72
2022/08/19 04:30:30;;;;;;;;;;;;;;;;;;5064255;28;922;-72
2022/08/19 04:32:55;;;;;;;;;;;;;;;;;;5064075;28;901;-72
2022/08/19 04:35:20;;;;;;;;;;;;;;;;;;5063813;28;1186;-72
2022/08/19 04:37:46;;;;;;;;;;;;;;;;;;5064000;28;945;-72
2022/08/19 04:42:56;;;;;;;;;;;;;;;;;;5064075;28;621;-72
2022/08/19 04:45:21;;;;;;;;;;;;;;;;;;5063320;28;1279;-72
2022/08/19 04:47:47;;;;;;;;;;;;;;;;;;5063780;28;878;-72
2022/08/19 04:50:12;;;;;;;;;;;;;;;;;;5063942;28;998;-74
2022/08/19 04:52:41;;;;;;;;;;;;;;;;;;5063890;28;1060;-73
2022/08/19 04:55:07;;;;;;;;;;;;;;;;;;5056337;28;1388;-73
2022/08/19 04:57:32;;;;;;;;;;;;;;;;;;5043798;28;1108;-71
2022/08/19 04:59:58;;;;;;;;;;;;;;;;;;5043550;28;1960;-71
2022/08/19 05:02:24;;;;;;;;;;;;;;;;;;5043692;28;910;-72
2022/08/19 05:04:49;;;;;;;;;;;;;;;;;;5043524;28;1188;-72
2022/08/19 05:07:14;;;;;;;;;;;;;;;;;;5043603;28;1000;-72
2022/08/19 05:09:39;;;;;;;;;;;;;;;;;;5043510;28;986;-73
2022/08/19 05:12:05;;;;;;;;;;;;;;;;;;5043586;28;950;-72
2022/08/19 05:14:31;;;;;;;;;;;;;;;;;;5043490;28;1275;-72
2022/08/19 05:16:56;;;;;;;;;;;;;;;;;;5043482;28;840;-72
2022/08/19 05:24:49;;;;;;;;;;;;;;;;;;5042210;28;1195;-72
2022/08/19 05:27:14;;;;;;;;;;;;;;;;;;5025798;28;1324;-72
2022/08/19 05:29:39;;;;;;;;;;;;;;;;;;5043287;28;886;-72
2022/08/19 05:32:05;;;;;;;;;;;;;;;;;;5043495;28;860;-73
2022/08/19 05:34:32;;;;;;;;;;;;;;;;;;5042951;28;1196;-73
2022/08/19 05:36:58;;;;;;;;;;;;;;;;;;5042912;28;826;-73
2022/08/19 05:39:25;;;;;;;;;;;;;;;;;;5043119;28;1973;-73
2022/08/19 05:41:57;;;;;;;;;;;;;;;;;;5043058;28;822;-72
2022/08/19 05:44:22;;;;;;;;;;;;;;;;;;5043020;28;1180;-72
2022/08/19 05:46:48;;;;;;;;;;;;;;;;;;5042936;28;732;-72
2022/08/19 05:49:14;;;;;;;;;;;;;;;;;;5043082;28;854;-72
2022/08/19 05:51:40;;;;;;;;;;;;;;;;;;5043024;28;865;-72
2022/08/19 05:54:06;;;;;;;;;;;;;;;;;;5043053;28;893;-72
2022/08/19 05:56:32;;;;;;;;;;;;;;;;;;5042430;28;1258;-73
2022/08/19 05:58:58;;;;;;;;;;;;;;;;;;5043049;28;838;-73
2022/08/19 06:01:24;;;;;;;;;;;;;;;;;;5042502;28;1878;-72
2022/08/19 06:03:49;;;;;;;;;;;;;;;;;;5025448;28;922;-73
2022/08/19 06:06:15;;;;;;;;;;;;;;;;;;5042405;28;1174;-73
2022/08/19 06:08:42;;;;;;;;;;;;;;;;;;5042753;28;1068;-73
2022/08/19 06:11:12;;;;;;;;;;;;;;;;;;5042928;28;849;-73
2022/08/19 06:13:38;;;;;;;;;;;;;;;;;;5042570;28;978;-73
2022/08/19 06:16:04;;;;;;;;;;;;;;;;;;5042145;28;1156;-73
2022/08/19 06:18:29;;;;;;;;;;;;;;;;;;5042700;28;889;-73
2022/08/19 06:20:54;;;;;;;;;;;;;;;;;;5042481;28;1894;-73
2022/08/19 06:23:20;;;;;;;;;;;;;;;;;;5042590;28;827;-73
2022/08/19 06:25:45;;;;;;;;;;;;;;;;;;5042036;28;1236;-73
2022/08/19 06:28:10;;;;;;;;;;;;;;;;;;5042271;28;890;-73
2022/08/19 06:30:36;;;;;;;;;;;;;;;;;;5042238;28;810;-73
2022/08/19 06:33:02;;;;;;;;;;;;;;;;;;5042275;28;815;-73
2022/08/19 06:35:29;;;;;;;;;;;;;;;;;;5042107;28;1176;-73
2022/08/19 06:37:54;;;;;;;;;;;;;;;;;;5042202;28;921;-73
2022/08/19 06:40:19;;;;;;;;;;;;;;;;;;5042143;28;1898;-73
2022/08/19 06:42:44;;;;;;;;;;;;;;;;;;5042293;28;1028;-73
2022/08/19 06:45:10;;;;;;;;;;;;;;;;;;5041612;28;1266;-73
2022/08/19 06:47:35;;;;;;;;;;;;;;;;;;5042110;28;807;-74
2022/08/19 06:50:02;;;;;;;;;;;;;;;;;;5042017;28;830;-73
2022/08/19 06:52:27;;;;;;;;;;;;;;;;;;5042205;28;827;-73
2022/08/19 06:54:55;;;;;;;;;;;;;;;;;;5023848;28;1226;-74
2022/08/19 06:57:21;;;;;;;;;;;;;;;;;;5041982;28;826;-73
2022/08/19 06:59:46;;;;;;;;;;;;;;;;;;5041752;28;1948;-73
2022/08/19 07:02:11;;;;;;;;;;;;;;;;;;5041883;28;1115;-73
2022/08/19 07:04:38;;;;;;;;;;;;;;;;;;5041536;28;1286;-72
2022/08/19 07:07:12;;;;;;;;;;;;;;;;;;5041843;28;846;-73
2022/08/19 07:09:38;;;;;;;;;;;;;;;;;;5041743;28;885;-73
2022/08/19 07:12:04;;;;;;;;;;;;;;;;;;5041794;28;798;-73
2022/08/19 07:14:29;;;;;;;;;;;;;;;;;;5041556;28;1211;-72
2022/08/19 07:16:55;;;;;;;;;;;;;;;;;;5041460;28;905;-73
2022/08/19 07:19:21;;;;;;;;;;;;;;;;;;5041577;28;2057;-73
2022/08/19 07:21:53;;;;;;;;;;;;;;;;;;5041565;28;826;-73
2022/08/19 07:24:19;;;;;;;;;;;;;;;;;;5041766;28;1180;-72
2022/08/19 07:26:45;;;;;;;;;;;;;;;;;;5041173;28;1028;-73
2022/08/19 07:29:11;;;;;;;;;;;;;;;;;;5041533;28;830;-73
2022/08/19 07:31:36;;;;;;;;;;;;;;;;;;5041593;28;846;-73
2022/08/19 07:34:06;;;;;;;;;;;;;;;;;;5041580;28;859;-73
2022/08/19 07:36:32;;;;;;;;;;;;;;;;;;5041251;28;1176;-73
2022/08/19 07:38:59;;;;;;;;;;;;;;;;;;5041515;28;854;-72
2022/08/19 07:41:25;;;;;;;;;;;;;;;;;;5041775;28;1977;-74
2022/08/19 07:43:51;;;;;;;;;;;;;;;;;;5041544;28;844;-73
2022/08/19 07:46:17;;;;;;;;;;;;;;;;;;5041069;28;1270;-74
2022/08/19 07:48:45;;;;;;;;;;;;;;;;;;5041475;28;945;-73
2022/08/19 07:51:10;;;;;;;;;;;;;;;;;;5025248;28;929;-74
2022/08/19 07:53:36;;;;;;;;;;;;;;;;;;5041874;28;1039;-74
2022/08/19 07:56:08;;;;;;;;;;;;;;;;;;5042042;28;1243;-75
2022/08/19 07:58:34;;;;;;;;;;;;;;;;;;5046327;28;794;-73
2022/08/19 08:01:00;;;;;;;;;;;;;;;;;;5049340;28;1961;-73
2022/08/19 08:09:11;;;;;;;;;;;;;;;;;;5053158;28;672;-74
2022/08/19 08:11:39;;;;;;;;;;;;;;;;;;5049057;28;926;-73
2022/08/19 08:14:05;;;;;;;;;;;;;;;;;;5048778;28;1010;-73
2022/08/19 08:16:33;;;;;;;;;;;;;;;;;;5048404;28;1255;-73
2022/08/19 08:18:59;;;;;;;;;;;;;;;;;;5047619;28;1052;-73
2022/08/19 08:21:24;;;;;;;;;;;;;;;;;;5028648;28;1879;-73
2022/08/19 08:23:51;;;;;;;;;;;;;;;;;;5042996;28;918;-73
2022/08/19 08:26:17;;;;;;;;;;;;;;;;;;5040516;28;1195;-74
2022/08/19 08:28:42;;;;;;;;;;;;;;;;;;5040686;28;803;-73
2022/08/19 08:31:07;;;;;;;;;;;;;;;;;;5040733;28;1001;-73
2022/08/19 08:33:32;;;;;;;;;;;;;;;;;;5040647;28;910;-73
2022/08/19 08:35:57;;;;;;;;;;;;;;;;;;5040556;28;1271;-73
2022/08/19 08:38:22;;;;;;;;;;;;;;;;;;5040491;28;911;-74
2022/08/19 08:40:50;;;;;;;;;;;;;;;;;;5040532;28;1953;-73
2022/08/19 08:43:15;;;;;;;;;;;;;;;;;;5040686;28;799;-73
2022/08/19 08:45:49;;;;;;;;;;;;;;;;;;5040226;28;1176;-74
2022/08/19 08:48:20;;;;;;;;;;;;;;;;;;5040494;28;894;-74
2022/08/19 08:50:47;;;;;;;;;;;;;;;;;;5023252;28;843;-74
2022/08/19 08:53:14;;;;;;;;;;;;;;;;;;5040524;28;803;-72
2022/08/19 08:55:41;;;;;;;;;;;;;;;;;;5040525;28;1256;-73
2022/08/19 08:58:09;;;;;;;;;;;;;;;;;;5040642;28;802;-73
2022/08/19 09:00:40;;;;;;;;;;;;;;;;;;5043720;28;1890;-74
2022/08/19 09:03:22;;;;;;;;;;;;;;;;;;5044225;28;853;-73
2022/08/19 09:06:02;;;;;;;;;;;;;;;;;;5043269;28;1179;-74
2022/08/19 09:08:38;;;;;;;;;;;;;;;;;;5044406;28;897;-74
2022/08/19 09:11:09;;;;;;;;;;;;;;;;;;5025985;28;1298;-73
2022/08/19 09:13:41;;;;;;;;;;;;;;;;;;5025980;28;1283;-73
2022/08/19 09:16:08;;;;;;;;;;;;;;;;;;5043246;28;1298;-73
2022/08/19 09:18:45;;;;;;;;;;;;;;;;;;5043544;28;882;-74
2022/08/19 09:21:11;;;;;;;;;;;;;;;;;;5043315;28;2249;-73
2022/08/19 09:23:36;;;;;;;;;;;;;;;;;;5043558;28;799;-73
2022/08/19 09:26:06;;;;;;;;;;;;;;;;;;5043044;28;1183;-73
2022/08/19 09:28:31;;;;;;;;;;;;;;;;;;5043262;28;968;-73
2022/08/19 09:30:56;;;;;;;;;;;;;;;;;;5043383;28;893;-73
2022/08/19 09:33:22;;;;;;;;;;;;;;;;;;5043347;28;826;-73
2022/08/19 09:35:47;;;;;;;;;;;;;;;;;;5025375;28;1204;-73
2022/08/19 09:38:12;;;;;;;;;;;;;;;;;;5042836;28;918;-73
2022/08/19 09:40:38;;;;;;;;;;;;;;;;;;5043134;28;1965;-74
2022/08/19 09:43:04;;;;;;;;;;;;;;;;;;5025230;28;866;-73
2022/08/19 09:45:30;;;;;;;;;;;;;;;;;;5042862;28;1183;-73
2022/08/19 09:47:56;;;;;;;;;;;;;;;;;;5042968;28;772;-73
2022/08/19 09:50:21;;;;;;;;;;;;;;;;;;5043055;28;867;-73
2022/08/19 09:52:47;;;;;;;;;;;;;;;;;;5042862;28;1001;-73
2022/08/19 09:55:13;;;;;;;;;;;;;;;;;;5042752;28;1152;-73
2022/08/19 09:57:38;;;;;;;;;;;;;;;;;;5042825;28;810;-73
2022/08/19 10:00:04;;;;;;;;;;;;;;;;;;5042798;28;1960;-73
2022/08/19 10:02:30;;;;;;;;;;;;;;;;;;5042889;28;1106;-73
2022/08/19 10:07:39;;;;;;;;;;;;;;;;;;5042915;28;637;-72
2022/08/19 10:10:06;;;;;;;;;;;;;;;;;;5042256;28;815;-72
2022/08/19 10:12:31;;;;;;;;;;;;;;;;;;5042799;28;831;-72
2022/08/19 10:14:56;;;;;;;;;;;;;;;;;;5042408;28;1183;-72
2022/08/19 10:17:21;;;;;;;;;;;;;;;;;;5042638;28;993;-72
2022/08/19 10:19:47;;;;;;;;;;;;;;;;;;5042301;28;1955;-73
2022/08/19 10:22:13;;;;;;;;;;;;;;;;;;5042650;28;835;-72
2022/08/19 10:24:38;;;;;;;;;;;;;;;;;;5042234;28;1124;-72
2022/08/19 10:27:05;;;;;;;;;;;;;;;;;;5042590;28;890;-73
2022/08/19 10:29:37;;;;;;;;;;;;;;;;;;5042251;28;882;-72
2022/08/19 10:32:05;;;;;;;;;;;;;;;;;;5042452;28;941;-72
2022/08/19 10:34:30;;;;;;;;;;;;;;;;;;5041889;28;1196;-73
2022/08/19 10:36:57;;;;;;;;;;;;;;;;;;5042367;28;846;-73
2022/08/19 10:39:22;;;;;;;;;;;;;;;;;;5042136;28;1902;-73
2022/08/19 10:41:47;;;;;;;;;;;;;;;;;;5042251;28;827;-73
2022/08/19 10:44:12;;;;;;;;;;;;;;;;;;5042137;28;1278;-72
2022/08/19 10:46:41;;;;;;;;;;;;;;;;;;5024017;28;835;-73
2022/08/19 10:49:07;;;;;;;;;;;;;;;;;;5042181;28;901;-73
2022/08/19 10:54:16;;;;;;;;;;;;;;;;;;5042134;28;1215;-72
2022/08/19 10:56:51;;;;;;;;;;;;;;;;;;5041809;28;798;-73
2022/08/19 10:59:16;;;;;;;;;;;;;;;;;;5041944;28;1965;-73
2022/08/19 11:01:43;;;;;;;;;;;;;;;;;;5041783;28;810;-73
2022/08/19 11:04:10;;;;;;;;;;;;;;;;;;5024466;28;1488;-73
2022/08/19 11:06:38;;;;;;;;;;;;;;;;;;5041593;28;1333;-73
2022/08/19 11:09:03;;;;;;;;;;;;;;;;;;5041802;28;834;-74
2022/08/19 11:11:28;;;;;;;;;;;;;;;;;;5041658;28;1024;-73
2022/08/19 11:13:53;;;;;;;;;;;;;;;;;;5041783;28;989;-74
2022/08/19 11:16:20;;;;;;;;;;;;;;;;;;5041629;28;1196;-73
2022/08/19 11:18:47;;;;;;;;;;;;;;;;;;5041623;28;791;-74
2022/08/19 11:21:13;;;;;;;;;;;;;;;;;;5040921;28;1943;-74
2022/08/19 11:23:38;;;;;;;;;;;;;;;;;;5041309;28;795;-73
2022/08/19 11:26:03;;;;;;;;;;;;;;;;;;5041293;28;1164;-72
2022/08/19 11:28:28;;;;;;;;;;;;;;;;;;5041261;28;761;-73
2022/08/19 11:30:54;;;;;;;;;;;;;;;;;;5041546;28;899;-73
2022/08/19 11:33:19;;;;;;;;;;;;;;;;;;5041291;28;937;-73
2022/08/19 11:35:44;;;;;;;;;;;;;;;;;;5041110;28;1184;-73
2022/08/19 11:38:10;;;;;;;;;;;;;;;;;;5041259;28;887;-73
2022/08/19 11:40:36;;;;;;;;;;;;;;;;;;5041282;28;1943;-73
2022/08/19 11:43:03;;;;;;;;;;;;;;;;;;5041104;28;1113;-73
2022/08/19 11:45:28;;;;;;;;;;;;;;;;;;5041063;28;1208;-73
2022/08/19 11:47:54;;;;;;;;;;;;;;;;;;5041524;28;799;-72
2022/08/19 11:50:19;;;;;;;;;;;;;;;;;;5041401;28;800;-73
2022/08/19 11:52:45;;;;;;;;;;;;;;;;;;5040899;28;2179;-73
2022/08/19 11:55:11;;;;;;;;;;;;;;;;;;5040768;28;1208;-73
2022/08/19 11:57:37;;;;;;;;;;;;;;;;;;5041174;28;834;-73
2022/08/19 12:00:03;;;;;;;;;;;;;;;;;;5040871;28;1918;-73
2022/08/19 12:02:29;;;;;;;;;;;;;;;;;;5041092;28;846;-73
2022/08/19 12:04:54;;;;;;;;;;;;;;;;;;5040596;28;1200;-74
2022/08/19 12:07:19;;;;;;;;;;;;;;;;;;5041080;28;815;-73
2022/08/19 12:09:44;;;;;;;;;;;;;;;;;;5040858;28;847;-74
2022/08/19 12:12:11;;;;;;;;;;;;;;;;;;5040919;28;862;-74
2022/08/19 12:14:36;;;;;;;;;;;;;;;;;;5022821;28;1176;-74
2022/08/19 12:17:04;;;;;;;;;;;;;;;;;;5040381;28;1357;-73
2022/08/19 12:19:29;;;;;;;;;;;;;;;;;;5041024;28;1953;-73
2022/08/19 12:21:59;;;;;;;;;;;;;;;;;;5040703;28;802;-72
2022/08/19 12:24:24;;;;;;;;;;;;;;;;;;5040847;28;1232;-72
2022/08/19 12:26:50;;;;;;;;;;;;;;;;;;5040577;28;862;-73
2022/08/19 12:29:15;;;;;;;;;;;;;;;;;;5040880;28;858;-73
2022/08/19 12:31:40;;;;;;;;;;;;;;;;;;5040657;28;807;-72
2022/08/19 12:34:06;;;;;;;;;;;;;;;;;;5043227;28;894;-73
2022/08/19 12:36:31;;;;;;;;;;;;;;;;;;5043884;28;1160;-73
2022/08/19 12:38:57;;;;;;;;;;;;;;;;;;5044040;28;895;-73
2022/08/19 12:41:22;;;;;;;;;;;;;;;;;;5044168;28;1967;-73
2022/08/19 12:43:49;;;;;;;;;;;;;;;;;;5044076;28;875;-73
2022/08/19 12:46:14;;;;;;;;;;;;;;;;;;5043864;28;1208;-73
2022/08/19 12:48:42;;;;;;;;;;;;;;;;;;5044139;28;886;-73
2022/08/19 12:51:09;;;;;;;;;;;;;;;;;;5044008;28;912;-73
2022/08/19 12:53:34;;;;;;;;;;;;;;;;;;5044024;28;784;-73
2022/08/19 12:55:59;;;;;;;;;;;;;;;;;;5043790;28;1286;-73
2022/08/19 12:58:25;;;;;;;;;;;;;;;;;;5043812;28;810;-73
2022/08/19 13:00:50;;;;;;;;;;;;;;;;;;5043929;28;1898;-73
2022/08/19 13:03:15;;;;;;;;;;;;;;;;;;5043644;28;1052;-73
2022/08/19 13:05:41;;;;;;;;;;;;;;;;;;5043405;28;1192;-73
2022/08/19 13:08:06;;;;;;;;;;;;;;;;;;5043484;28;807;-73
2022/08/19 13:10:35;;;;;;;;;;;;;;;;;;5043648;28;806;-73
2022/08/19 13:13:01;;;;;;;;;;;;;;;;;;5043440;28;909;-72
2022/08/19 13:15:28;;;;;;;;;;;;;;;;;;5043329;28;1188;-73
2022/08/19 13:17:53;;;;;;;;;;;;;;;;;;5043497;28;881;-73
2022/08/19 13:20:19;;;;;;;;;;;;;;;;;;5043497;28;1910;-73
2022/08/19 13:22:45;;;;;;;;;;;;;;;;;;5043126;28;807;-73
2022/08/19 13:25:11;;;;;;;;;;;;;;;;;;5042991;28;1199;-73
2022/08/19 13:27:37;;;;;;;;;;;;;;;;;;5043600;28;894;-73
2022/08/19 13:35:30;;;;;;;;;;;;;;;;;;5042940;28;1278;-72
2022/08/19 13:37:56;;;;;;;;;;;;;;;;;;5043342;28;795;-73
2022/08/19 13:40:23;;;;;;;;;;;;;;;;;;5042898;28;1906;-73
2022/08/19 13:42:50;;;;;;;;;;;;;;;;;;5043183;28;873;-73
2022/08/19 13:45:17;;;;;;;;;;;;;;;;;;5042183;28;1274;-73
2022/08/19 13:47:44;;;;;;;;;;;;;;;;;;5043276;28;893;-72
2022/08/19 13:50:13;;;;;;;;;;;;;;;;;;5042964;28;1056;-73
2022/08/19 13:52:39;;;;;;;;;;;;;;;;;;5042928;28;866;-73
2022/08/19 13:55:05;;;;;;;;;;;;;;;;;;5042563;28;1188;-73
2022/08/19 13:57:30;;;;;;;;;;;;;;;;;;5043030;28;985;-73
2022/08/19 13:59:57;;;;;;;;;;;;;;;;;;5042696;28;1902;-73
2022/08/19 14:02:22;;;;;;;;;;;;;;;;;;5043081;28;890;-73
2022/08/19 14:04:47;;;;;;;;;;;;;;;;;;5024576;28;1486;-73
2022/08/19 14:07:13;;;;;;;;;;;;;;;;;;5042724;28;1052;-73
2022/08/19 14:09:39;;;;;;;;;;;;;;;;;;5042797;28;890;-73
2022/08/19 14:12:04;;;;;;;;;;;;;;;;;;5042638;28;898;-73
2022/08/19 14:14:29;;;;;;;;;;;;;;;;;;5024527;28;1188;-73
2022/08/19 14:16:54;;;;;;;;;;;;;;;;;;5042676;28;1021;-70
2022/08/19 14:19:20;;;;;;;;;;;;;;;;;;5042584;28;866;-72
2022/08/19 14:21:45;;;;;;;;;;;;;;;;;;5042633;28;1979;-72
2022/08/19 14:24:10;;;;;;;;;;;;;;;;;;5042511;28;1056;-72
2022/08/19 14:26:36;;;;;;;;;;;;;;;;;;5042218;28;1251;-72
2022/08/19 14:29:01;;;;;;;;;;;;;;;;;;5042579;28;857;-72
2022/08/19 14:31:26;;;;;;;;;;;;;;;;;;5042394;28;836;-72
2022/08/19 14:33:52;;;;;;;;;;;;;;;;;;5042279;28;846;-72
2022/08/19 14:36:18;;;;;;;;;;;;;;;;;;5042295;28;1259;-72
2022/08/19 14:38:43;;;;;;;;;;;;;;;;;;5024562;28;1541;-72
2022/08/19 14:41:16;;;;;;;;;;;;;;;;;;5042137;28;1965;-72
2022/08/19 14:43:42;;;;;;;;;;;;;;;;;;5042164;28;873;-72
2022/08/19 14:46:07;;;;;;;;;;;;;;;;;;5041954;28;1251;-72
2022/08/19 14:48:33;;;;;;;;;;;;;;;;;;5041834;28;818;-72
2022/08/19 14:50:58;;;;;;;;;;;;;;;;;;5042095;28;977;-72
2022/08/19 14:53:23;;;;;;;;;;;;;;;;;;5041960;28;966;-71
2022/08/19 14:55:48;;;;;;;;;;;;;;;;;;5041337;28;1192;-72
2022/08/19 14:58:14;;;;;;;;;;;;;;;;;;5041174;28;783;-72
2022/08/19 15:00:39;;;;;;;;;;;;;;;;;;5042560;28;1953;-71
2022/08/19 15:03:05;;;;;;;;;;;;;;;;;;5041774;28;1044;-71
2022/08/19 15:05:31;;;;;;;;;;;;;;;;;;5041448;28;1199;-72
2022/08/19 15:07:56;;;;;;;;;;;;;;;;;;5041896;28;908;-71
2022/08/19 15:10:23;;;;;;;;;;;;;;;;;;5041925;28;779;-71
2022/08/19 15:12:48;;;;;;;;;;;;;;;;;;5041883;28;890;-69
2022/08/19 15:15:14;;;;;;;;;;;;;;;;;;5041206;28;1188;-72
2022/08/19 15:17:42;;;;;;;;;;;;;;;;;;5041753;28;878;-72
2022/08/19 15:20:08;;;;;;;;;;;;;;;;;;5023596;28;1898;-71
2022/08/19 15:22:35;;;;;;;;;;;;;;;;;;5041755;28;933;-72
2022/08/19 15:25:00;;;;;;;;;;;;;;;;;;5041153;28;1129;-71
2022/08/19 15:27:26;;;;;;;;;;;;;;;;;;5041930;28;833;-71
2022/08/19 15:29:51;;;;;;;;;;;;;;;;;;5041483;28;894;-71
2022/08/19 15:32:16;;;;;;;;;;;;;;;;;;5041480;28;975;-72
2022/08/19 15:34:41;;;;;;;;;;;;;;;;;;5040949;28;1279;-72
2022/08/19 15:37:07;;;;;;;;;;;;;;;;;;5041621;28;853;-71
2022/08/19 15:39:33;;;;;;;;;;;;;;;;;;5041236;28;1964;-71
2022/08/19 15:41:59;;;;;;;;;;;;;;;;;;5041527;28;823;-72
2022/08/19 15:44:25;;;;;;;;;;;;;;;;;;5041120;28;1270;-71
2022/08/19 15:46:50;;;;;;;;;;;;;;;;;;5041084;28;855;-72
2022/08/19 15:49:16;;;;;;;;;;;;;;;;;;5041348;28;1177;-72
2022/08/19 15:51:43;;;;;;;;;;;;;;;;;;5041079;28;989;-72
2022/08/19 15:54:10;;;;;;;;;;;;;;;;;;5041388;28;866;-72
2022/08/19 16:07:31;;;;;;;;;;;;;;;;;;5041193;28;692;-72
2022/08/19 16:09:56;;;;;;;;;;;;;;;;;;5044897;28;811;-72
2022/08/19 16:12:26;;;;;;;;;;;;;;;;;;5044441;28;985;-72
2022/08/19 16:14:52;;;;;;;;;;;;;;;;;;5044288;28;1183;-72
2022/08/19 16:17:17;;;;;;;;;;;;;;;;;;5044353;28;837;-72
2022/08/19 16:19:42;;;;;;;;;;;;;;;;;;5044479;28;1897;-72
2022/08/19 16:22:08;;;;;;;;;;;;;;;;;;5044225;28;892;-71
2022/08/19 16:24:34;;;;;;;;;;;;;;;;;;5030998;28;1337;-71
2022/08/19 16:27:00;;;;;;;;;;;;;;;;;;5064260;28;973;-71
2022/08/19 16:29:26;;;;;;;;;;;;;;;;;;5064497;28;873;-71
2022/08/19 16:31:53;;;;;;;;;;;;;;;;;;5046309;28;1602;-71
2022/08/19 16:34:18;;;;;;;;;;;;;;;;;;5064009;28;1266;-71
2022/08/19 16:36:43;;;;;;;;;;;;;;;;;;5063995;28;842;-71
2022/08/19 16:39:12;;;;;;;;;;;;;;;;;;5046257;28;1375;-71
2022/08/19 16:41:38;;;;;;;;;;;;;;;;;;5064309;28;1897;-71
2022/08/19 16:44:04;;;;;;;;;;;;;;;;;;5064028;28;996;-71
2022/08/19 16:46:29;;;;;;;;;;;;;;;;;;5063755;28;1168;-71
2022/08/19 16:48:54;;;;;;;;;;;;;;;;;;5063914;28;910;-71
2022/08/19 16:51:21;;;;;;;;;;;;;;;;;;5064024;28;787;-71
2022/08/19 16:53:46;;;;;;;;;;;;;;;;;;5063970;28;862;-71
2022/08/19 16:56:12;;;;;;;;;;;;;;;;;;5063587;28;1184;-71
2022/08/19 16:58:37;;;;;;;;;;;;;;;;;;5063976;28;857;-71
2022/08/19 17:01:04;;;;;;;;;;;;;;;;;;5063734;28;1890;-72
2022/08/19 17:03:30;;;;;;;;;;;;;;;;;;5063805;28;885;-71
2022/08/19 17:05:56;;;;;;;;;;;;;;;;;;5063312;28;1144;-71
2022/08/19 17:08:25;;;;;;;;;;;;;;;;;;5063804;28;981;-71
2022/08/19 17:10:53;;;;;;;;;;;;;;;;;;5063601;28;842;-72
2022/08/19 17:13:18;;;;;;;;;;;;;;;;;;5063777;28;854;-71
2022/08/19 17:15:43;;;;;;;;;;;;;;;;;;5063134;28;1274;-71
2022/08/19 17:18:09;;;;;;;;;;;;;;;;;;5063987;28;846;-72
2022/08/19 17:20:35;;;;;;;;;;;;;;;;;;5062212;28;1960;-72
2022/08/19 17:23:01;;;;;;;;;;;;;;;;;;5063821;28;1080;-72
2022/08/19 17:25:27;;;;;;;;;;;;;;;;;;5062686;28;1207;-72
2022/08/19 17:27:53;;;;;;;;;;;;;;;;;;5063567;28;827;-72
2022/08/19 17:30:19;;;;;;;;;;;;;;;;;;5063223;28;799;-73
2022/08/19 17:32:44;;;;;;;;;;;;;;;;;;5063504;28;784;-73
2022/08/19 17:35:09;;;;;;;;;;;;;;;;;;5044844;28;1450;-72
2022/08/19 17:37:35;;;;;;;;;;;;;;;;;;5063200;28;965;-72
2022/08/19 17:40:05;;;;;;;;;;;;;;;;;;5063202;28;1978;-72
2022/08/19 17:42:30;;;;;;;;;;;;;;;;;;5045093;28;1361;-72